WST517 MYNN-MYAN
Flight info
| Callsign | WST517 |
|---|---|
| Flight time | N/A |
| Altitude | 6000 |
| Route | DCT |
| Aircraft | E145/M-SDFGIRW/S |
Departure
| Time | 2026-05-04 22:38 |
|---|---|
| Airport | Lynden Pindling International Airport (MYNN) |
Arrival
| Time | N/A |
|---|---|
| Airport | San Andros Airport (MYAN) |
| Time | Latitude | Longitude | Altitude | Speed | Heading |
|---|---|---|---|---|---|
| 2026-05-04 22:27 | 25.04740 | -77.46524 | 27 ft | 0 kts | 358° |
| 2026-05-04 22:33 | 25.04741 | -77.46524 | 27 ft | 2 kts | 355° |
| 2026-05-04 22:33 | 25.04711 | -77.46545 | 27 ft | 11 kts | 180° |
| 2026-05-04 22:33 | 25.04672 | -77.46547 | 26 ft | 3 kts | 187° |
| 2026-05-04 22:34 | 25.04645 | -77.46556 | 26 ft | 3 kts | 212° |
| 2026-05-04 22:34 | 25.04649 | -77.46577 | 26 ft | 4 kts | 304° |
| 2026-05-04 22:34 | 25.04673 | -77.46613 | 25 ft | 7 kts | 309° |
| 2026-05-04 22:34 | 25.04725 | -77.46677 | 24 ft | 11 kts | 298° |
| 2026-05-04 22:35 | 25.04710 | -77.46771 | 23 ft | 13 kts | 289° |
| 2026-05-04 22:35 | 25.04770 | -77.46851 | 24 ft | 13 kts | 316° |
| 2026-05-04 22:35 | 25.04837 | -77.46926 | 26 ft | 14 kts | 314° |
| 2026-05-04 22:35 | 25.04910 | -77.47008 | 26 ft | 15 kts | 315° |
| 2026-05-04 22:36 | 25.04990 | -77.47096 | 26 ft | 17 kts | 315° |
| 2026-05-04 22:36 | 25.05080 | -77.47195 | 25 ft | 19 kts | 314° |
| 2026-05-04 22:36 | 25.05177 | -77.47307 | 23 ft | 19 kts | 312° |
| 2026-05-04 22:36 | 25.05211 | -77.47446 | 22 ft | 20 kts | 255° |
| 2026-05-04 22:37 | 25.05142 | -77.47522 | 21 ft | 13 kts | 143° |
| 2026-05-04 22:37 | 25.05129 | -77.47508 | 21 ft | 2 kts | 137° |
| 2026-05-04 22:37 | 25.05052 | -77.47423 | 22 ft | 46 kts | 134° |
| 2026-05-04 22:37 | 25.04650 | -77.46980 | 29 ft | 112 kts | 136° |
| 2026-05-04 22:38 | 25.03992 | -77.46231 | 145 ft | 148 kts | 131° |
| 2026-05-04 22:38 | 25.03279 | -77.45404 | 619 ft | 159 kts | 131° |
| 2026-05-04 22:38 | 25.02442 | -77.44488 | 928 ft | 188 kts | 145° |
| 2026-05-04 22:38 | 25.01049 | -77.44162 | 1161 ft | 223 kts | 186° |
| 2026-05-04 22:39 | 24.99611 | -77.44943 | 1650 ft | 248 kts | 223° |
| 2026-05-04 22:39 | 24.98744 | -77.46631 | 2220 ft | 267 kts | 257° |
| 2026-05-04 22:39 | 24.98414 | -77.48725 | 2800 ft | 286 kts | 261° |
| 2026-05-04 22:39 | 24.98075 | -77.50893 | 3341 ft | 280 kts | 261° |
| 2026-05-04 22:40 | 24.97755 | -77.52924 | 3838 ft | 253 kts | 261° |
| 2026-05-04 22:40 | 24.97473 | -77.54725 | 4320 ft | 229 kts | 261° |
| 2026-05-04 22:40 | 24.97218 | -77.56355 | 4804 ft | 204 kts | 261° |
| 2026-05-04 22:40 | 24.96994 | -77.57798 | 5283 ft | 178 kts | 261° |
| 2026-05-04 22:41 | 24.96801 | -77.59028 | 5743 ft | 151 kts | 261° |
| 2026-05-04 22:41 | 24.96631 | -77.60119 | 5932 ft | 142 kts | 261° |
| 2026-05-04 22:41 | 24.96460 | -77.61212 | 5988 ft | 153 kts | 261° |
| 2026-05-04 22:41 | 24.96265 | -77.62487 | 6014 ft | 184 kts | 261° |
| 2026-05-04 22:42 | 24.96040 | -77.63956 | 5999 ft | 203 kts | 261° |
| 2026-05-04 22:42 | 24.95792 | -77.65552 | 5988 ft | 217 kts | 261° |
| 2026-05-04 22:42 | 24.95536 | -77.67229 | 5980 ft | 230 kts | 260° |
| 2026-05-04 22:42 | 24.95156 | -77.68993 | 5975 ft | 241 kts | 256° |
| 2026-05-04 22:43 | 24.94727 | -77.70822 | 5970 ft | 251 kts | 256° |
| 2026-05-04 22:43 | 24.94282 | -77.72711 | 5974 ft | 260 kts | 256° |
| 2026-05-04 22:43 | 24.93817 | -77.74677 | 5975 ft | 267 kts | 256° |
| 2026-05-04 22:43 | 24.93343 | -77.76662 | 5971 ft | 274 kts | 256° |
| 2026-05-04 22:44 | 24.92848 | -77.78733 | 5965 ft | 280 kts | 256° |
| 2026-05-04 22:44 | 24.92360 | -77.80800 | 5964 ft | 284 kts | 256° |
| 2026-05-04 22:44 | 24.91856 | -77.82941 | 5963 ft | 288 kts | 256° |
| 2026-05-04 22:44 | 24.91689 | -77.83652 | 5965 ft | 290 kts | 256° |
| 2026-05-04 22:45 | 24.89887 | -77.91337 | 5859 ft | 256 kts | 256° |
| 2026-05-04 22:45 | 24.89713 | -77.93246 | 5626 ft | 247 kts | 273° |
| 2026-05-04 22:46 | 24.89877 | -77.94482 | 5477 ft | 242 kts | 282° |
| 2026-05-04 22:46 | 24.90593 | -77.96763 | 5183 ft | 234 kts | 289° |
| 2026-05-04 22:46 | 24.91150 | -77.98422 | 4960 ft | 229 kts | 289° |
| 2026-05-04 22:46 | 24.91693 | -78.00057 | 4738 ft | 225 kts | 289° |
| 2026-05-04 22:47 | 24.91872 | -78.00597 | 4667 ft | 223 kts | 289° |